createdAt,value
2023-01-29T00:00:19.879Z,16.30
2023-01-29T00:02:47.981Z,17.60
2023-01-29T00:05:27.360Z,16.85
2023-01-29T00:07:56.032Z,16.30
2023-01-29T00:10:23.983Z,16.73
2023-01-29T00:12:53.125Z,17.13
2023-01-29T00:15:23.575Z,17.67
2023-01-29T00:17:51.471Z,16.30
2023-01-29T00:20:20.726Z,17.05
2023-01-29T00:22:48.823Z,16.80
2023-01-29T00:25:17.185Z,17.30
2023-01-29T00:27:45.325Z,19.98
2023-01-29T00:30:13.909Z,18.13
2023-01-29T00:32:42.052Z,18.38
2023-01-29T00:35:10.773Z,18.17
2023-01-29T00:37:39.933Z,17.45
2023-01-29T00:40:09.246Z,17.77
2023-01-29T00:43:02.979Z,18.70
2023-01-29T00:45:31.733Z,16.00
2023-01-29T00:47:59.851Z,18.80
2023-01-29T00:50:27.699Z,18.30
2023-01-29T00:52:57.194Z,18.77
2023-01-29T00:55:25.040Z,18.73
2023-01-29T00:57:52.963Z,18.27
2023-01-29T01:00:22.398Z,17.27
2023-01-29T01:03:07.499Z,17.98
2023-01-29T01:05:37.282Z,17.33
2023-01-29T01:08:27.659Z,17.77
2023-01-29T01:11:01.797Z,18.00
2023-01-29T01:13:36.158Z,19.10
2023-01-29T01:16:10.558Z,17.23
2023-01-29T01:18:39.127Z,18.02
2023-01-29T01:21:07.187Z,19.15
2023-01-29T01:23:36.909Z,18.20
2023-01-29T01:26:10.461Z,18.92
2023-01-29T01:28:38.497Z,18.98
2023-01-29T01:31:13.657Z,18.73
2023-01-29T01:33:41.978Z,18.98
2023-01-29T01:36:10.145Z,17.75
2023-01-29T01:38:44.685Z,17.42
2023-01-29T01:41:13.753Z,18.33
2023-01-29T01:43:52.358Z,19.13
2023-01-29T01:46:20.894Z,18.05
2023-01-29T01:48:52.469Z,18.55
2023-01-29T01:51:21.100Z,19.35
2023-01-29T01:53:56.612Z,18.20
2023-01-29T01:56:26.995Z,18.63
2023-01-29T01:58:56.576Z,17.90
2023-01-29T02:01:29.222Z,20.02
2023-01-29T02:04:19.299Z,18.10
2023-01-29T02:07:04.748Z,19.08
2023-01-29T02:09:40.775Z,19.25
2023-01-29T02:12:11.014Z,18.55
2023-01-29T02:14:41.388Z,18.35
2023-01-29T02:17:11.534Z,19.95
2023-01-29T02:19:45.510Z,19.02
2023-01-29T02:25:09.362Z,18.40
2023-01-29T02:28:00.896Z,19.02
2023-01-29T02:30:35.338Z,19.20
2023-01-29T02:33:11.556Z,19.95
2023-01-29T02:35:47.566Z,19.63
2023-01-29T02:38:20.476Z,19.45
2023-01-29T02:40:53.858Z,18.77
2023-01-29T02:43:31.831Z,19.33
2023-01-29T02:46:06.792Z,18.80
2023-01-29T02:48:46.693Z,19.05
2023-01-29T02:51:19.985Z,17.77
2023-01-29T02:53:53.423Z,19.42
2023-01-29T02:56:24.657Z,19.35
2023-01-29T02:58:58.492Z,19.80
2023-01-29T03:01:31.583Z,19.33
2023-01-29T03:04:03.657Z,19.40
2023-01-29T03:06:34.463Z,18.08
2023-01-29T03:09:05.900Z,18.80
2023-01-29T03:11:36.838Z,18.23
2023-01-29T03:14:08.651Z,18.83
2023-01-29T03:16:41.043Z,18.80
2023-01-29T03:19:12.344Z,19.25
2023-01-29T03:21:59.091Z,18.83
2023-01-29T03:24:54.399Z,19.27
2023-01-29T03:27:46.182Z,18.40
2023-01-29T03:30:39.708Z,18.08
2023-01-29T03:33:22.813Z,19.30
2023-01-29T03:35:54.897Z,18.38
2023-01-29T03:38:22.764Z,18.90
2023-01-29T03:40:54.440Z,19.30
2023-01-29T03:43:32.499Z,19.67
2023-01-29T03:46:06.108Z,20.17
2023-01-29T03:48:37.435Z,19.25
2023-01-29T03:51:15.662Z,19.13
2023-01-29T03:53:52.982Z,19.95
2023-01-29T03:56:35.634Z,19.60
2023-01-29T03:59:12.069Z,20.60
2023-01-29T04:02:06.112Z,19.15
2023-01-29T04:04:36.493Z,20.38
2023-01-29T04:07:10.049Z,20.05
2023-01-29T04:09:45.305Z,19.83
2023-01-29T04:12:19.060Z,20.15
2023-01-29T04:14:49.954Z,21.25
2023-01-29T04:17:21.342Z,20.70
2023-01-29T04:20:04.240Z,21.30
2023-01-29T04:22:35.768Z,21.13
2023-01-29T04:25:08.644Z,21.20
2023-01-29T04:27:50.668Z,20.95
2023-01-29T04:30:25.346Z,21.75
2023-01-29T04:33:06.429Z,20.75
2023-01-29T04:35:45.271Z,21.27
2023-01-29T04:38:22.180Z,22.73
2023-01-29T04:40:52.834Z,20.67
2023-01-29T04:43:28.899Z,21.02
2023-01-29T04:46:10.658Z,22.08
2023-01-29T04:48:50.521Z,21.77
2023-01-29T04:51:23.099Z,20.65
2023-01-29T04:53:54.934Z,22.88
2023-01-29T04:56:30.214Z,21.35
2023-01-29T04:59:02.410Z,22.15
2023-01-29T05:01:33.455Z,21.67
2023-01-29T05:04:06.083Z,21.67
2023-01-29T05:06:34.055Z,22.58
2023-01-29T05:09:03.050Z,21.60
2023-01-29T05:11:32.045Z,20.70
2023-01-29T05:14:00.539Z,21.02
2023-01-29T05:16:30.985Z,21.30
2023-01-29T05:18:59.178Z,21.60
2023-01-29T05:21:28.588Z,21.45
2023-01-29T05:24:10.765Z,21.42
2023-01-29T05:26:56.490Z,20.70
2023-01-29T05:29:25.226Z,20.13
2023-01-29T05:31:53.596Z,21.65
2023-01-29T05:34:21.595Z,21.55
2023-01-29T05:36:51.603Z,20.98
2023-01-29T05:39:19.788Z,21.45
2023-01-29T05:41:47.862Z,21.35
2023-01-29T05:44:16.072Z,22.20
2023-01-29T05:46:44.733Z,19.75
2023-01-29T05:49:12.620Z,20.48
2023-01-29T05:51:40.649Z,21.33
2023-01-29T05:54:13.359Z,20.70
2023-01-29T05:56:41.334Z,21.02
2023-01-29T05:59:09.759Z,20.13
2023-01-29T06:01:39.773Z,20.65
2023-01-29T06:04:07.809Z,20.85
2023-01-29T06:06:35.669Z,21.00
2023-01-29T06:09:03.544Z,21.73
2023-01-29T06:11:32.867Z,21.75
2023-01-29T06:14:01.483Z,21.42
2023-01-29T06:16:29.678Z,21.85
2023-01-29T06:18:57.850Z,22.63
2023-01-29T06:21:25.910Z,21.73
2023-01-29T06:23:54.156Z,22.42
2023-01-29T06:26:22.206Z,21.27
2023-01-29T06:28:51.602Z,22.42
2023-01-29T06:31:36.946Z,22.58
2023-01-29T06:34:05.959Z,21.02
2023-01-29T06:36:33.897Z,23.83
2023-01-29T06:39:01.873Z,21.73
2023-01-29T06:41:29.944Z,22.77
2023-01-29T06:44:01.498Z,23.25
2023-01-29T06:46:29.339Z,21.67
2023-01-29T06:49:00.140Z,23.75
2023-01-29T06:51:28.556Z,23.63
2023-01-29T06:53:56.538Z,23.10
2023-01-29T06:56:25.073Z,24.40
2023-01-29T06:58:52.937Z,23.77
2023-01-29T07:01:35.149Z,24.20
2023-01-29T07:04:04.663Z,25.60
2023-01-29T07:06:32.747Z,25.92
2023-01-29T07:09:00.827Z,24.50
2023-01-29T07:11:28.744Z,25.52
2023-01-29T07:13:56.563Z,25.40
2023-01-29T07:16:26.455Z,25.05
2023-01-29T07:18:54.387Z,25.00
2023-01-29T07:21:22.193Z,23.75
2023-01-29T07:23:50.125Z,23.90
2023-01-29T07:26:18.068Z,23.75
2023-01-29T07:28:48.628Z,23.48
2023-01-29T07:31:17.078Z,23.42
2023-01-29T07:33:46.853Z,23.48
2023-01-29T07:36:14.691Z,23.10
2023-01-29T07:38:42.768Z,23.35
2023-01-29T07:41:13.223Z,23.15
2023-01-29T07:43:48.451Z,23.00
2023-01-29T07:46:17.077Z,24.15
2023-01-29T07:48:49.183Z,22.58
2023-01-29T07:51:18.779Z,22.48
2023-01-29T07:53:47.338Z,24.27
2023-01-29T07:56:16.912Z,22.58
2023-01-29T07:58:48.785Z,22.30
2023-01-29T08:01:16.966Z,23.63
2023-01-29T08:03:46.167Z,22.25
2023-01-29T08:06:13.990Z,22.67
2023-01-29T08:08:42.889Z,21.38
2023-01-29T08:11:10.717Z,23.35
2023-01-29T08:13:38.650Z,23.10
2023-01-29T08:16:07.733Z,22.45
2023-01-29T08:18:37.991Z,23.33
2023-01-29T08:21:07.459Z,22.08
2023-01-29T08:23:35.514Z,22.25
2023-01-29T08:26:03.739Z,22.48
2023-01-29T08:28:31.581Z,22.10
2023-01-29T08:30:59.923Z,21.10
2023-01-29T08:36:21.252Z,21.73
2023-01-29T08:38:52.660Z,21.05
2023-01-29T08:41:20.607Z,20.50
2023-01-29T08:43:48.607Z,21.23
2023-01-29T08:46:16.533Z,21.60
2023-01-29T08:48:44.354Z,21.77
2023-01-29T08:51:12.236Z,22.27
2023-01-29T08:53:41.519Z,21.92
2023-01-29T08:56:10.089Z,22.73
2023-01-29T08:58:37.917Z,21.95
2023-01-29T09:01:10.060Z,22.52
2023-01-29T09:03:40.876Z,22.38
2023-01-29T09:06:10.635Z,20.50
2023-01-29T09:08:38.779Z,20.50
2023-01-29T09:11:10.690Z,21.10
2023-01-29T09:13:38.589Z,20.45
2023-01-29T09:16:07.193Z,20.98
2023-01-29T09:18:35.251Z,20.63
2023-01-29T09:21:03.714Z,21.67
2023-01-29T09:23:38.006Z,20.60
2023-01-29T09:26:06.142Z,20.60
2023-01-29T09:28:35.442Z,19.45
2023-01-29T09:31:03.713Z,19.55
2023-01-29T09:33:32.495Z,19.42
2023-01-29T09:36:00.221Z,21.27
2023-01-29T09:38:28.294Z,19.52
2023-01-29T09:40:59.814Z,20.27
2023-01-29T09:43:40.398Z,20.67
2023-01-29T09:46:16.645Z,18.80
2023-01-29T09:48:47.591Z,18.90
2023-01-29T09:51:26.367Z,17.98
2023-01-29T09:53:59.967Z,18.73
2023-01-29T09:56:31.588Z,17.77
2023-01-29T09:59:01.953Z,18.80
2023-01-29T10:01:35.258Z,18.08
2023-01-29T10:04:14.635Z,17.45
2023-01-29T10:06:52.521Z,18.33
2023-01-29T10:09:40.627Z,19.13
2023-01-29T10:12:20.455Z,18.23
2023-01-29T10:14:57.064Z,17.80
2023-01-29T10:17:43.234Z,16.67
2023-01-29T10:20:37.119Z,15.88
2023-01-29T10:23:24.002Z,15.40
2023-01-29T10:25:51.950Z,14.60
2023-01-29T10:28:22.708Z,15.10
2023-01-29T10:30:53.223Z,15.43
2023-01-29T10:33:27.254Z,14.93
2023-01-29T10:38:30.912Z,14.35
2023-01-29T10:41:05.652Z,14.25
2023-01-29T10:43:38.121Z,15.07
2023-01-29T10:46:15.855Z,14.57
2023-01-29T10:48:54.616Z,15.18
2023-01-29T10:51:35.321Z,14.85
2023-01-29T10:54:14.785Z,14.98
2023-01-29T10:56:52.112Z,14.50
2023-01-29T10:59:33.472Z,14.20
2023-01-29T11:02:14.444Z,15.73
2023-01-29T11:04:42.362Z,14.68
2023-01-29T11:07:10.629Z,15.35
2023-01-29T11:09:43.263Z,15.40
2023-01-29T11:12:13.814Z,14.77
2023-01-29T11:14:45.933Z,15.98
2023-01-29T11:17:19.861Z,15.43
2023-01-29T11:19:51.370Z,16.45
2023-01-29T11:22:20.985Z,16.40
2023-01-29T11:25:10.082Z,16.20
2023-01-29T11:27:44.892Z,16.38
2023-01-29T11:30:18.913Z,16.13
2023-01-29T11:32:51.828Z,17.35
2023-01-29T11:35:25.837Z,16.77
2023-01-29T11:40:35.054Z,17.00
2023-01-29T11:43:14.555Z,18.02
2023-01-29T11:45:42.350Z,18.67
2023-01-29T11:48:16.936Z,17.77
2023-01-29T11:50:45.804Z,19.63
2023-01-29T11:53:28.190Z,20.42
2023-01-29T11:55:57.881Z,19.58
2023-01-29T11:58:28.779Z,20.88
2023-01-29T12:00:58.806Z,20.15
2023-01-29T12:03:34.000Z,20.88
2023-01-29T12:06:05.048Z,20.85
2023-01-29T12:08:38.213Z,20.55
2023-01-29T12:11:12.053Z,20.70
2023-01-29T12:13:40.865Z,22.85
2023-01-29T12:16:16.820Z,23.17
2023-01-29T12:18:49.555Z,24.45
2023-01-29T12:21:22.078Z,24.77
2023-01-29T12:23:54.959Z,22.77
2023-01-29T12:26:27.115Z,24.45
2023-01-29T12:29:05.623Z,23.70
2023-01-29T12:31:38.086Z,24.85
2023-01-29T12:34:12.540Z,23.35
2023-01-29T12:36:44.116Z,24.25
2023-01-29T12:39:12.591Z,24.30
2023-01-29T12:41:46.037Z,23.23
2023-01-29T12:44:18.398Z,23.80
2023-01-29T12:46:50.498Z,24.55
2023-01-29T12:49:23.867Z,23.83
2023-01-29T12:51:56.851Z,24.88
2023-01-29T12:54:29.476Z,25.98
2023-01-29T12:56:59.705Z,23.77
2023-01-29T12:59:31.021Z,23.70
2023-01-29T13:02:01.730Z,23.40
2023-01-29T13:04:39.167Z,24.33
2023-01-29T13:07:13.331Z,23.17
2023-01-29T13:09:45.920Z,25.42
2023-01-29T13:12:15.890Z,26.05
2023-01-29T13:14:47.333Z,23.70
2023-01-29T13:17:18.949Z,23.25
2023-01-29T13:19:51.663Z,24.33
2023-01-29T13:22:23.846Z,24.52
2023-01-29T13:25:03.541Z,23.67
2023-01-29T13:27:34.429Z,25.30
2023-01-29T13:30:02.797Z,24.75
2023-01-29T13:32:31.919Z,25.30
2023-01-29T13:35:05.171Z,24.13
2023-01-29T13:37:34.781Z,24.98
2023-01-29T13:40:04.416Z,24.58
2023-01-29T13:42:40.479Z,25.80
2023-01-29T13:45:10.421Z,25.55
2023-01-29T13:47:40.235Z,25.15
2023-01-29T13:50:14.843Z,24.50
2023-01-29T13:52:45.186Z,25.27
2023-01-29T13:55:24.202Z,24.55
2023-01-29T13:57:56.736Z,24.92
2023-01-29T14:01:01.643Z,24.15
2023-01-29T14:04:06.040Z,24.25
2023-01-29T14:06:49.835Z,23.10
2023-01-29T14:10:02.740Z,23.90
2023-01-29T14:12:40.631Z,24.33
2023-01-29T14:15:30.410Z,22.75
2023-01-29T14:18:01.532Z,23.10
2023-01-29T14:20:45.101Z,22.75
2023-01-29T14:23:24.753Z,22.98
2023-01-29T14:25:53.247Z,23.52
2023-01-29T14:28:25.599Z,24.20
2023-01-29T14:30:53.955Z,24.58
2023-01-29T14:33:30.860Z,23.92
2023-01-29T14:35:59.428Z,23.60
2023-01-29T14:38:29.769Z,24.08
2023-01-29T14:41:14.044Z,23.30
2023-01-29T14:43:42.183Z,22.80
2023-01-29T14:46:45.418Z,24.40
2023-01-29T14:49:14.027Z,23.30
2023-01-29T14:51:47.328Z,23.90
2023-01-29T14:54:23.051Z,25.80
2023-01-29T14:56:58.463Z,25.48
2023-01-29T14:59:31.936Z,24.45
2023-01-29T15:02:03.429Z,23.60
2023-01-29T15:04:37.043Z,24.45
2023-01-29T15:07:07.596Z,24.83
2023-01-29T15:09:41.915Z,24.10
2023-01-29T15:12:17.417Z,24.67
2023-01-29T15:14:49.320Z,24.48
2023-01-29T15:17:20.933Z,26.00
2023-01-29T15:19:49.935Z,24.38
2023-01-29T15:22:18.830Z,25.55
2023-01-29T15:24:49.289Z,25.73
2023-01-29T15:27:21.809Z,24.67
2023-01-29T15:29:56.893Z,25.23
2023-01-29T15:32:30.775Z,26.45
2023-01-29T15:35:00.416Z,25.20
2023-01-29T15:37:30.836Z,27.02
2023-01-29T15:40:00.271Z,25.15
2023-01-29T15:42:30.770Z,26.35
2023-01-29T15:44:59.710Z,26.05
2023-01-29T15:47:31.761Z,25.50
2023-01-29T15:49:59.732Z,26.50
2023-01-29T15:52:29.850Z,25.27
2023-01-29T15:54:58.181Z,25.40
2023-01-29T15:57:34.348Z,28.85
2023-01-29T16:00:02.967Z,25.73
2023-01-29T16:02:40.637Z,28.10
2023-01-29T16:05:13.659Z,43.08
2023-01-29T16:07:42.295Z,28.17
2023-01-29T16:10:16.486Z,26.35
2023-01-29T16:12:47.450Z,25.27
2023-01-29T16:15:22.605Z,26.02
2023-01-29T16:17:52.071Z,24.50
2023-01-29T16:20:33.731Z,25.80
2023-01-29T16:23:01.903Z,26.33
2023-01-29T16:25:31.365Z,26.48
2023-01-29T16:28:05.066Z,25.92
2023-01-29T16:30:33.487Z,25.67
2023-01-29T16:33:05.988Z,24.67
2023-01-29T16:35:34.790Z,26.67
2023-01-29T16:38:05.462Z,26.52
2023-01-29T16:40:35.423Z,25.77
2023-01-29T16:43:46.327Z,23.80
2023-01-29T16:46:26.102Z,25.60
2023-01-29T16:48:54.461Z,25.15
2023-01-29T16:51:25.865Z,23.58
2023-01-29T16:53:56.542Z,23.98
2023-01-29T16:56:24.720Z,24.83
2023-01-29T16:58:54.849Z,24.02
2023-01-29T17:01:24.824Z,24.85
2023-01-29T17:03:59.876Z,24.80
2023-01-29T17:06:28.496Z,23.65
2023-01-29T17:08:56.605Z,25.15
2023-01-29T17:11:28.069Z,23.60
2023-01-29T17:13:58.395Z,23.02
2023-01-29T17:16:28.779Z,23.67
2023-01-29T17:18:56.889Z,22.20
2023-01-29T17:21:24.823Z,23.42
2023-01-29T17:23:52.989Z,24.33
2023-01-29T17:26:21.736Z,23.00
2023-01-29T17:28:54.279Z,23.88
2023-01-29T17:31:23.609Z,24.00
2023-01-29T17:33:51.966Z,22.63
2023-01-29T17:36:19.984Z,23.58
2023-01-29T17:38:47.861Z,24.13
2023-01-29T17:41:21.057Z,22.60
2023-01-29T17:43:49.124Z,24.57
2023-01-29T17:46:18.512Z,24.08
2023-01-29T17:48:49.238Z,24.88
2023-01-29T17:51:24.654Z,23.95
2023-01-29T17:53:53.125Z,23.85
2023-01-29T17:56:27.521Z,24.95
2023-01-29T17:58:55.427Z,23.80
2023-01-29T18:01:23.263Z,23.52
2023-01-29T18:03:52.517Z,24.10
2023-01-29T18:06:26.206Z,23.17
2023-01-29T18:08:54.300Z,23.60
2023-01-29T18:11:22.081Z,23.25
2023-01-29T18:13:50.027Z,23.80
2023-01-29T18:16:19.001Z,23.88
2023-01-29T18:18:46.892Z,25.25
2023-01-29T18:21:16.732Z,24.58
2023-01-29T18:23:47.672Z,23.90
2023-01-29T18:26:17.807Z,23.38
2023-01-29T18:28:45.867Z,22.92
2023-01-29T18:31:51.553Z,24.48
2023-01-29T18:34:19.611Z,22.73
2023-01-29T18:36:48.853Z,23.30
2023-01-29T18:39:17.026Z,22.90
2023-01-29T18:41:44.986Z,24.13
2023-01-29T18:44:13.887Z,24.98
2023-01-29T18:46:42.659Z,22.95
2023-01-29T18:49:10.814Z,24.58
2023-01-29T18:51:38.814Z,23.83
2023-01-29T18:54:08.095Z,21.77
2023-01-29T18:56:35.966Z,22.98
2023-01-29T18:59:06.582Z,23.05
2023-01-29T19:01:34.645Z,23.52
2023-01-29T19:04:02.634Z,22.27
2023-01-29T19:06:30.461Z,23.05
2023-01-29T19:08:58.958Z,21.95
2023-01-29T19:11:28.337Z,22.13
2023-01-29T19:13:56.057Z,22.20
2023-01-29T19:16:24.056Z,22.42
2023-01-29T19:18:53.645Z,22.58
2023-01-29T19:21:21.646Z,22.40
2023-01-29T19:23:49.679Z,22.67
2023-01-29T19:26:19.344Z,21.77
2023-01-29T19:28:48.646Z,22.05
2023-01-29T19:31:16.803Z,21.65
2023-01-29T19:33:46.545Z,23.45
2023-01-29T19:36:14.438Z,22.00
2023-01-29T19:38:42.834Z,22.60
2023-01-29T19:41:10.744Z,22.75
2023-01-29T19:43:41.999Z,22.75
2023-01-29T19:46:11.486Z,24.23
2023-01-29T19:48:39.997Z,21.60
2023-01-29T19:51:09.765Z,23.63
2023-01-29T19:53:39.015Z,22.95
2023-01-29T19:56:08.746Z,24.45
2023-01-29T19:58:39.263Z,24.13
2023-01-29T20:01:13.584Z,23.75
2023-01-29T20:03:43.191Z,23.65
2023-01-29T20:06:11.589Z,23.67
2023-01-29T20:08:39.450Z,24.58
2023-01-29T20:11:07.565Z,24.65
2023-01-29T20:13:35.782Z,24.58
2023-01-29T20:16:05.449Z,23.77
2023-01-29T20:18:33.778Z,24.60
2023-01-29T20:21:09.532Z,23.85
2023-01-29T20:23:38.993Z,25.58
2023-01-29T20:26:07.536Z,24.90
2023-01-29T20:28:36.236Z,23.95
2023-01-29T20:31:04.526Z,25.15
2023-01-29T20:33:33.643Z,24.38
2023-01-29T20:36:04.077Z,26.98
2023-01-29T20:38:32.244Z,25.75
2023-01-29T20:41:04.902Z,24.38
2023-01-29T20:43:34.357Z,25.70
2023-01-29T20:46:02.761Z,25.80
2023-01-29T20:48:31.147Z,26.50
2023-01-29T20:51:06.697Z,26.15
2023-01-29T20:53:34.607Z,26.20
2023-01-29T20:56:04.297Z,27.13
2023-01-29T20:58:33.294Z,26.30
2023-01-29T21:01:01.244Z,26.50
2023-01-29T21:03:29.218Z,27.63
2023-01-29T21:05:59.161Z,26.50
2023-01-29T21:08:28.538Z,26.75
2023-01-29T21:10:56.630Z,27.08
2023-01-29T21:13:24.421Z,25.10
2023-01-29T21:15:52.455Z,26.52
2023-01-29T21:18:20.478Z,28.40
2023-01-29T21:20:50.400Z,29.00
2023-01-29T21:23:18.207Z,27.45
2023-01-29T21:25:48.142Z,28.45
2023-01-29T21:28:16.392Z,26.88
2023-01-29T21:30:44.369Z,28.63
2023-01-29T21:33:12.489Z,29.98
2023-01-29T21:35:40.207Z,28.40
2023-01-29T21:38:08.099Z,28.90
2023-01-29T21:40:35.953Z,27.88
2023-01-29T21:43:16.300Z,29.50
2023-01-29T21:45:44.423Z,27.63
2023-01-29T21:48:13.714Z,28.40
2023-01-29T21:50:41.712Z,29.75
2023-01-29T21:53:09.554Z,30.85
2023-01-29T21:55:37.430Z,28.35
2023-01-29T21:58:06.696Z,29.60
2023-01-29T22:00:34.513Z,29.75
2023-01-29T22:03:02.444Z,30.15
2023-01-29T22:05:30.293Z,29.42
2023-01-29T22:07:58.139Z,30.92
2023-01-29T22:10:26.010Z,30.10
2023-01-29T22:12:54.218Z,31.60
2023-01-29T22:15:24.225Z,32.05
2023-01-29T22:17:52.358Z,32.50
2023-01-29T22:20:20.594Z,33.17
2023-01-29T22:22:48.425Z,34.55
2023-01-29T22:25:20.201Z,31.85
2023-01-29T22:27:48.478Z,31.80
2023-01-29T22:30:17.050Z,30.88
2023-01-29T22:32:46.434Z,31.90
2023-01-29T22:35:14.209Z,37.30
2023-01-29T22:37:42.156Z,32.17
2023-01-29T22:40:10.979Z,30.83
2023-01-29T22:42:38.866Z,31.60
2023-01-29T22:45:07.464Z,30.73
2023-01-29T22:47:35.486Z,31.52
2023-01-29T22:50:05.039Z,32.33
2023-01-29T22:52:38.475Z,31.50
2023-01-29T22:55:08.857Z,34.00
2023-01-29T22:57:37.185Z,32.55
2023-01-29T23:00:07.038Z,31.40
2023-01-29T23:02:34.858Z,33.38
2023-01-29T23:05:04.441Z,32.45
2023-01-29T23:07:32.326Z,31.88
2023-01-29T23:10:00.335Z,32.67
2023-01-29T23:12:28.240Z,31.80
2023-01-29T23:14:56.112Z,35.25
2023-01-29T23:17:24.005Z,32.28
2023-01-29T23:19:52.058Z,34.83
2023-01-29T23:22:21.394Z,31.90
2023-01-29T23:24:49.243Z,32.22
2023-01-29T23:27:16.105Z,31.77
2023-01-29T23:29:44.998Z,31.27
2023-01-29T23:32:14.270Z,30.65
2023-01-29T23:34:42.234Z,31.27
2023-01-29T23:37:10.095Z,32.17
2023-01-29T23:39:39.326Z,31.27
2023-01-29T23:42:07.335Z,32.22
2023-01-29T23:44:35.577Z,31.55
2023-01-29T23:47:03.388Z,31.27
2023-01-29T23:49:31.182Z,31.88
2023-01-29T23:51:58.883Z,31.58
2023-01-29T23:54:26.760Z,31.77
2023-01-29T23:56:55.977Z,31.60
2023-01-29T23:59:24.158Z,30.30
